createdAt,value
2017-08-22T00:01:19.722Z,13.80
2017-08-22T00:03:47.488Z,13.70
2017-08-22T00:06:15.348Z,13.60
2017-08-22T00:08:43.213Z,13.50
2017-08-22T00:11:11.075Z,13.50
2017-08-22T00:13:38.940Z,13.50
2017-08-22T00:16:06.805Z,13.40
2017-08-22T00:18:34.669Z,13.40
2017-08-22T00:21:02.534Z,13.30
2017-08-22T00:23:30.396Z,13.30
2017-08-22T00:25:58.263Z,13.30
2017-08-22T00:28:26.126Z,13.20
2017-08-22T00:30:53.991Z,13.20
2017-08-22T00:33:21.851Z,13.10
2017-08-22T00:35:49.713Z,13.10
2017-08-22T00:38:17.478Z,13.10
2017-08-22T00:40:45.351Z,13.10
2017-08-22T00:43:13.209Z,13.20
2017-08-22T00:45:41.068Z,13.30
2017-08-22T00:48:08.939Z,13.30
2017-08-22T00:50:36.798Z,13.40
2017-08-22T00:53:04.664Z,13.40
2017-08-22T00:55:32.526Z,13.40
2017-08-22T00:58:01.398Z,13.50
2017-08-22T01:00:29.276Z,13.50
2017-08-22T01:02:57.140Z,13.60
2017-08-22T01:05:24.967Z,13.70
2017-08-22T01:07:52.763Z,13.80
2017-08-22T01:10:21.000Z,13.90
2017-08-22T01:12:48.799Z,13.90
2017-08-22T01:15:16.662Z,14.00
2017-08-22T01:17:44.527Z,14.10
2017-08-22T01:20:12.391Z,14.20
2017-08-22T01:22:40.357Z,14.20
2017-08-22T01:25:08.221Z,14.30
2017-08-22T01:27:36.084Z,14.30
2017-08-22T01:30:03.953Z,14.30
2017-08-22T01:32:31.813Z,14.40
2017-08-22T01:34:59.676Z,14.40
2017-08-22T01:37:27.539Z,14.40
2017-08-22T01:39:55.405Z,14.50
2017-08-22T01:42:23.269Z,14.40
2017-08-22T01:44:51.131Z,14.40
2017-08-22T01:47:18.962Z,14.40
2017-08-22T01:49:46.758Z,14.40
2017-08-22T01:52:14.622Z,14.30
2017-08-22T01:54:42.485Z,14.30
2017-08-22T01:57:10.351Z,14.40
2017-08-22T01:59:38.212Z,14.40
2017-08-22T02:02:06.077Z,14.50
2017-08-22T02:04:33.941Z,14.50
2017-08-22T02:07:01.804Z,14.40
2017-08-22T02:09:29.669Z,14.40
2017-08-22T02:11:57.533Z,14.40
2017-08-22T02:14:25.396Z,14.50
2017-08-22T02:16:53.259Z,14.50
2017-08-22T02:19:21.125Z,14.50
2017-08-22T02:21:48.956Z,14.50
2017-08-22T02:24:16.853Z,14.50
2017-08-22T02:26:44.715Z,14.50
2017-08-22T02:29:12.579Z,14.30
2017-08-22T02:31:40.445Z,14.20
2017-08-22T02:34:08.308Z,14.10
2017-08-22T02:36:36.172Z,14.00
2017-08-22T02:39:04.035Z,13.90
2017-08-22T02:41:31.865Z,13.80
2017-08-22T02:43:59.762Z,13.70
2017-08-22T02:46:27.627Z,13.60
2017-08-22T02:48:55.490Z,13.50
2017-08-22T02:51:23.353Z,13.50
2017-08-22T02:53:51.219Z,13.40
2017-08-22T02:56:19.085Z,13.40
2017-08-22T02:58:46.912Z,13.40
2017-08-22T03:01:14.812Z,13.40
2017-08-22T03:03:42.674Z,13.40
2017-08-22T03:06:10.537Z,13.40
2017-08-22T03:08:38.404Z,13.30
2017-08-22T03:11:06.279Z,13.30
2017-08-22T03:13:34.134Z,13.20
2017-08-22T03:16:01.992Z,13.20
2017-08-22T03:18:29.857Z,13.10
2017-08-22T03:20:57.721Z,13.00
2017-08-22T03:23:25.483Z,13.00
2017-08-22T03:25:53.346Z,12.90
2017-08-22T03:28:21.209Z,12.90
2017-08-22T03:30:49.074Z,12.80
2017-08-22T03:33:16.907Z,12.70
2017-08-22T03:35:44.698Z,12.70
2017-08-22T03:38:12.562Z,12.60
2017-08-22T03:40:40.427Z,12.60
2017-08-22T03:43:08.293Z,12.70
2017-08-22T03:45:36.155Z,12.60
2017-08-22T03:48:04.018Z,12.60
2017-08-22T03:50:31.883Z,12.50
2017-08-22T03:52:59.746Z,12.50
2017-08-22T03:55:27.572Z,12.50
2017-08-22T03:57:55.372Z,12.60
2017-08-22T04:00:23.237Z,12.60
2017-08-22T04:02:51.100Z,12.50
2017-08-22T04:05:18.964Z,12.50
2017-08-22T04:07:46.887Z,12.50
2017-08-22T04:10:14.793Z,12.60
2017-08-22T04:12:42.661Z,12.70
2017-08-22T04:15:10.520Z,12.70
2017-08-22T04:17:38.385Z,12.80
2017-08-22T04:20:06.248Z,12.80
2017-08-22T04:22:34.112Z,12.90
2017-08-22T04:25:01.977Z,13.00
2017-08-22T04:27:29.840Z,13.10
2017-08-22T04:29:57.704Z,13.30
2017-08-22T04:32:25.569Z,13.40
2017-08-22T04:34:53.434Z,13.50
2017-08-22T04:37:21.295Z,13.70
2017-08-22T04:39:49.215Z,13.80
2017-08-22T04:42:17.023Z,13.80
2017-08-22T04:44:44.850Z,14.00
2017-08-22T04:47:12.648Z,14.10
2017-08-22T04:49:40.475Z,14.10
2017-08-22T04:52:08.376Z,14.20
2017-08-22T04:54:36.240Z,14.30
2017-08-22T04:57:04.107Z,14.30
2017-08-22T04:59:31.969Z,14.50
2017-08-22T05:01:59.834Z,14.70
2017-08-22T05:04:27.696Z,15.00
2017-08-22T05:06:55.457Z,15.40
2017-08-22T05:09:23.320Z,15.60
2017-08-22T05:11:51.186Z,16.00
2017-08-22T05:14:19.050Z,16.20
2017-08-22T05:16:46.882Z,16.60
2017-08-22T05:19:14.674Z,17.00
2017-08-22T05:21:42.538Z,17.50
2017-08-22T05:24:10.401Z,17.90
2017-08-22T05:26:38.266Z,18.40
2017-08-22T05:29:06.131Z,18.80
2017-08-22T05:31:33.995Z,19.30
2017-08-22T05:34:01.858Z,20.00
2017-08-22T05:36:29.724Z,20.50
2017-08-22T05:38:57.586Z,21.20
2017-08-22T05:41:25.450Z,21.70
2017-08-22T05:43:53.312Z,22.10
2017-08-22T05:46:21.076Z,22.60
2017-08-22T05:48:48.940Z,23.50
2017-08-22T05:51:16.774Z,23.80
2017-08-22T05:53:44.666Z,24.50
2017-08-22T05:56:12.537Z,25.20
2017-08-22T05:58:40.394Z,25.60
2017-08-22T06:01:08.260Z,26.30
2017-08-22T06:03:36.124Z,25.90
2017-08-22T06:06:03.986Z,26.20
2017-08-22T06:08:31.850Z,26.50
2017-08-22T06:10:59.713Z,26.30
2017-08-22T06:13:27.577Z,24.70
2017-08-22T06:15:55.340Z,22.90
2017-08-22T06:18:23.203Z,21.80
2017-08-22T06:20:51.067Z,20.90
2017-08-22T06:23:18.932Z,19.90
2017-08-22T06:25:46.794Z,19.30
2017-08-22T06:28:14.666Z,19.10
2017-08-22T06:30:42.522Z,19.30
2017-08-22T06:33:10.387Z,19.90
2017-08-22T06:35:38.250Z,21.80
2017-08-22T06:38:06.118Z,22.70
2017-08-22T06:40:33.977Z,22.30
2017-08-22T06:43:01.842Z,22.20
2017-08-22T06:45:29.705Z,22.10
2017-08-22T06:47:57.569Z,22.20
2017-08-22T06:50:25.434Z,22.30
2017-08-22T06:52:53.297Z,22.80
2017-08-22T06:55:21.161Z,24.10
2017-08-22T06:57:49.025Z,24.70
2017-08-22T07:00:16.898Z,25.40
2017-08-22T07:02:44.716Z,26.20
2017-08-22T07:05:12.520Z,26.80
2017-08-22T07:07:40.493Z,27.30
2017-08-22T07:10:08.344Z,26.60
2017-08-22T07:12:36.207Z,26.20
2017-08-22T07:15:04.073Z,25.20
2017-08-22T07:17:31.936Z,24.90
2017-08-22T07:19:59.799Z,24.40
2017-08-22T07:22:27.663Z,24.80
2017-08-22T07:24:55.533Z,24.90
2017-08-22T07:27:23.392Z,25.30
2017-08-22T07:29:51.256Z,25.70
2017-08-22T07:32:19.120Z,25.90
2017-08-22T07:34:46.983Z,24.70
2017-08-22T07:37:14.847Z,25.60
2017-08-22T07:39:42.678Z,27.20
2017-08-22T07:42:10.475Z,28.90
2017-08-22T07:44:38.337Z,29.90
2017-08-22T07:47:06.200Z,29.70
2017-08-22T07:49:34.063Z,29.40
2017-08-22T07:52:01.929Z,28.70
2017-08-22T07:54:29.791Z,28.70
2017-08-22T07:56:57.655Z,27.50
2017-08-22T07:59:25.622Z,26.80
2017-08-22T08:01:53.485Z,27.40
2017-08-22T08:04:21.352Z,26.40
2017-08-22T08:06:49.112Z,24.90
2017-08-22T08:09:16.976Z,24.90
2017-08-22T08:11:44.839Z,24.10
2017-08-22T08:14:12.674Z,23.60
2017-08-22T08:16:40.466Z,23.00
2017-08-22T08:19:08.328Z,22.20
2017-08-22T08:21:36.192Z,21.60
2017-08-22T08:24:04.057Z,21.00
2017-08-22T08:26:31.921Z,20.30
2017-08-22T08:28:59.783Z,20.30
2017-08-22T08:31:27.648Z,20.80
2017-08-22T08:33:55.513Z,20.60
2017-08-22T08:36:23.275Z,21.30
2017-08-22T08:38:51.136Z,21.90
2017-08-22T08:41:19.003Z,21.90
2017-08-22T08:43:46.865Z,21.80
2017-08-22T08:46:14.697Z,21.70
2017-08-22T08:48:42.605Z,21.70
2017-08-22T08:51:10.456Z,22.00
2017-08-22T08:53:38.526Z,22.20
2017-08-22T08:56:06.389Z,22.30
2017-08-22T08:58:34.150Z,22.20
2017-08-22T09:01:02.014Z,23.60
2017-08-22T09:03:29.878Z,26.20
2017-08-22T09:05:57.745Z,27.70
2017-08-22T09:08:25.611Z,27.30
2017-08-22T09:10:53.470Z,28.10
2017-08-22T09:13:21.333Z,29.30
2017-08-22T09:15:49.197Z,29.60
2017-08-22T09:18:17.273Z,29.90
2017-08-22T09:20:45.130Z,28.80
2017-08-22T09:23:12.993Z,29.10
2017-08-22T09:25:40.861Z,29.30
2017-08-22T09:28:08.721Z,27.90
2017-08-22T09:30:36.587Z,26.60
2017-08-22T09:33:04.448Z,25.10
2017-08-22T09:35:32.319Z,24.40
2017-08-22T09:38:00.177Z,23.20
2017-08-22T09:40:28.041Z,22.10
2017-08-22T09:42:55.906Z,22.40
2017-08-22T09:45:23.767Z,22.40
2017-08-22T09:47:51.633Z,22.70
2017-08-22T09:50:19.495Z,22.70
2017-08-22T09:52:47.360Z,23.10
2017-08-22T09:55:15.225Z,23.50
2017-08-22T09:57:43.087Z,23.60
2017-08-22T10:00:10.951Z,23.50
2017-08-22T10:02:38.816Z,23.60
2017-08-22T10:05:06.681Z,23.20
2017-08-22T10:07:34.546Z,21.80
2017-08-22T10:10:02.408Z,21.70
2017-08-22T10:12:30.271Z,21.60
2017-08-22T10:14:58.135Z,21.00
2017-08-22T10:17:25.999Z,20.70
2017-08-22T10:19:54.170Z,20.60
2017-08-22T10:22:22.035Z,20.70
2017-08-22T10:24:49.898Z,21.00
2017-08-22T10:27:17.762Z,21.40
2017-08-22T10:29:45.625Z,21.70
2017-08-22T10:32:13.489Z,21.70
2017-08-22T10:34:41.353Z,22.00
2017-08-22T10:37:09.216Z,22.50
2017-08-22T10:39:37.080Z,22.90
2017-08-22T10:42:04.945Z,22.90
2017-08-22T10:44:32.811Z,22.60
2017-08-22T10:47:00.673Z,22.60
2017-08-22T10:49:28.536Z,22.90
2017-08-22T10:51:56.400Z,22.60
2017-08-22T10:54:24.264Z,21.80
2017-08-22T10:56:52.127Z,21.40
2017-08-22T10:59:19.991Z,21.40
2017-08-22T11:01:47.855Z,21.60
2017-08-22T11:04:15.745Z,22.40
2017-08-22T11:06:43.585Z,23.00
2017-08-22T11:09:11.450Z,22.90
2017-08-22T11:11:39.211Z,22.50
2017-08-22T11:14:07.074Z,22.40
2017-08-22T11:16:34.939Z,22.10
2017-08-22T11:19:02.800Z,21.80
2017-08-22T11:21:30.765Z,21.80
2017-08-22T11:23:58.600Z,22.00
2017-08-22T11:26:26.495Z,21.90
2017-08-22T11:28:54.359Z,22.00
2017-08-22T11:31:22.226Z,22.10
2017-08-22T11:33:50.086Z,22.00
2017-08-22T11:36:17.949Z,21.90
2017-08-22T11:38:45.814Z,21.90
2017-08-22T11:41:13.676Z,21.70
2017-08-22T11:43:41.542Z,21.90
2017-08-22T11:46:09.408Z,21.90
2017-08-22T11:48:37.166Z,21.90
2017-08-22T11:51:05.029Z,22.10
2017-08-22T11:53:32.862Z,22.10
2017-08-22T11:56:00.628Z,22.10
2017-08-22T11:58:28.522Z,21.90
2017-08-22T12:00:56.385Z,21.90
2017-08-22T12:03:24.248Z,22.10
2017-08-22T12:05:52.112Z,22.40
2017-08-22T12:08:19.976Z,22.50
2017-08-22T12:10:47.843Z,22.80
2017-08-22T12:13:15.706Z,23.20
2017-08-22T12:15:43.569Z,23.50
2017-08-22T12:18:11.350Z,23.50
2017-08-22T12:20:39.192Z,22.80
2017-08-22T12:23:07.057Z,22.80
2017-08-22T12:25:34.919Z,22.30
2017-08-22T12:28:02.785Z,22.20
2017-08-22T12:30:30.649Z,22.30
2017-08-22T12:32:58.512Z,22.30
2017-08-22T12:35:26.376Z,22.40
2017-08-22T12:37:54.247Z,22.30
2017-08-22T12:40:22.115Z,22.40
2017-08-22T12:42:49.967Z,22.60
2017-08-22T12:45:17.830Z,22.50
2017-08-22T12:47:45.698Z,22.30
2017-08-22T12:50:13.559Z,22.20
2017-08-22T12:52:41.421Z,22.20
2017-08-22T12:55:09.286Z,22.20
2017-08-22T12:57:37.151Z,22.10
2017-08-22T13:00:05.015Z,22.00
2017-08-22T13:02:32.878Z,22.10
2017-08-22T13:05:00.742Z,22.20
2017-08-22T13:07:28.607Z,21.90
2017-08-22T13:09:56.469Z,21.50
2017-08-22T13:12:24.336Z,20.90
2017-08-22T13:14:52.196Z,20.70
2017-08-22T13:17:20.067Z,20.50
2017-08-22T13:19:47.926Z,20.40
2017-08-22T13:22:15.711Z,20.60
2017-08-22T13:24:43.654Z,20.80
2017-08-22T13:27:11.517Z,20.70
2017-08-22T13:29:39.380Z,20.60
2017-08-22T13:32:07.244Z,20.60
2017-08-22T13:34:35.108Z,20.80
2017-08-22T13:37:02.973Z,20.60
2017-08-22T13:39:30.836Z,20.30
2017-08-22T13:41:58.700Z,20.10
2017-08-22T13:44:26.533Z,20.00
2017-08-22T13:46:54.325Z,19.90
2017-08-22T13:49:22.192Z,19.80
2017-08-22T13:51:50.055Z,19.70
2017-08-22T13:54:17.917Z,19.80
2017-08-22T13:56:45.751Z,19.80
2017-08-22T13:59:13.655Z,20.00
2017-08-22T14:01:41.514Z,20.30
2017-08-22T14:04:09.372Z,20.40
2017-08-22T14:06:37.134Z,20.30
2017-08-22T14:09:04.998Z,20.00
2017-08-22T14:11:32.862Z,19.90
2017-08-22T14:14:00.728Z,19.80
2017-08-22T14:16:28.596Z,19.80
2017-08-22T14:18:56.474Z,19.80
2017-08-22T14:21:24.321Z,19.80
2017-08-22T14:23:52.181Z,19.70
2017-08-22T14:26:20.045Z,19.50
2017-08-22T14:28:47.911Z,19.50
2017-08-22T14:31:15.654Z,19.40
2017-08-22T14:33:43.400Z,19.30
2017-08-22T14:36:11.174Z,19.40
2017-08-22T14:38:38.915Z,19.30
2017-08-22T14:41:06.718Z,19.30
2017-08-22T14:43:34.469Z,19.40
2017-08-22T14:46:02.222Z,19.30
2017-08-22T14:48:30.001Z,19.30
2017-08-22T14:50:57.745Z,19.20
2017-08-22T14:53:25.567Z,19.10
2017-08-22T14:55:53.310Z,19.10
2017-08-22T14:58:21.068Z,19.10
2017-08-22T15:00:48.834Z,19.10
2017-08-22T15:03:16.586Z,19.00
2017-08-22T15:05:44.379Z,19.00
2017-08-22T15:08:12.129Z,19.10
2017-08-22T15:10:39.874Z,19.10
2017-08-22T15:13:07.650Z,19.10
2017-08-22T15:15:35.388Z,19.10
2017-08-22T15:18:03.192Z,19.00
2017-08-22T15:20:30.948Z,19.00
2017-08-22T15:22:58.694Z,18.90
2017-08-22T15:25:26.510Z,18.70
2017-08-22T15:27:54.249Z,18.60
2017-08-22T15:30:22.047Z,18.60
2017-08-22T15:32:49.865Z,18.70
2017-08-22T15:35:17.614Z,18.80
2017-08-22T15:37:45.382Z,18.80
2017-08-22T15:40:13.174Z,18.60
2017-08-22T15:42:41.230Z,18.50
2017-08-22T15:45:09.178Z,18.40
2017-08-22T15:47:37.198Z,18.40
2017-08-22T15:50:05.039Z,18.40
2017-08-22T15:52:32.885Z,18.30
2017-08-22T15:55:00.695Z,18.20
2017-08-22T15:57:28.443Z,18.20
2017-08-22T15:59:56.193Z,18.30
2017-08-22T16:02:23.977Z,18.20
2017-08-22T16:04:51.759Z,18.20
2017-08-22T16:07:19.569Z,18.20
2017-08-22T16:09:47.331Z,18.20
2017-08-22T16:12:15.140Z,18.20
2017-08-22T16:14:42.950Z,18.20
2017-08-22T16:17:10.887Z,18.20
2017-08-22T16:19:38.717Z,18.10
2017-08-22T16:22:06.488Z,18.00
2017-08-22T16:24:34.262Z,18.00
2017-08-22T16:27:02.051Z,18.00
2017-08-22T16:29:29.795Z,17.90
2017-08-22T16:31:57.743Z,17.90
2017-08-22T16:34:25.498Z,17.80
2017-08-22T16:36:53.254Z,17.70
2017-08-22T16:39:21.021Z,17.70
2017-08-22T16:41:48.759Z,17.60
2017-08-22T16:44:16.558Z,17.60
2017-08-22T16:46:44.308Z,17.50
2017-08-22T16:49:12.050Z,17.50
2017-08-22T16:51:39.825Z,17.50
2017-08-22T16:54:07.577Z,17.40
2017-08-22T16:56:35.416Z,17.40
2017-08-22T16:59:03.164Z,17.30
2017-08-22T17:01:30.907Z,17.30
2017-08-22T17:03:58.686Z,17.20
2017-08-22T17:06:26.672Z,17.10
2017-08-22T17:08:54.473Z,17.00
2017-08-22T17:11:22.250Z,16.90
2017-08-22T17:13:50.797Z,16.80
2017-08-22T17:16:18.585Z,16.70
2017-08-22T17:18:46.342Z,16.60
2017-08-22T17:21:14.150Z,16.60
2017-08-22T17:23:41.899Z,16.50
2017-08-22T17:26:09.658Z,16.40
2017-08-22T17:28:37.449Z,16.30
2017-08-22T17:31:05.214Z,16.20
2017-08-22T17:33:33.005Z,16.10
2017-08-22T17:36:00.748Z,16.00
2017-08-22T17:38:28.486Z,15.90
2017-08-22T17:40:56.272Z,15.80
2017-08-22T17:43:24.009Z,15.80
2017-08-22T17:45:51.817Z,15.70
2017-08-22T17:48:19.576Z,15.70
2017-08-22T17:50:47.380Z,15.50
2017-08-22T17:53:15.158Z,15.50
2017-08-22T17:55:42.899Z,15.30
2017-08-22T17:58:10.698Z,15.30
2017-08-22T18:00:38.438Z,15.20
2017-08-22T18:03:06.181Z,15.20
2017-08-22T18:05:33.955Z,15.10
2017-08-22T18:08:01.709Z,15.10
2017-08-22T18:10:29.515Z,15.00
2017-08-22T18:12:57.265Z,14.90
2017-08-22T18:15:25.009Z,14.80
2017-08-22T18:17:52.778Z,14.80
2017-08-22T18:20:20.526Z,14.70
2017-08-22T18:22:48.299Z,14.60
2017-08-22T18:25:16.045Z,14.60
2017-08-22T18:27:43.845Z,14.60
2017-08-22T18:30:11.591Z,14.50
2017-08-22T18:32:39.350Z,14.50
2017-08-22T18:35:07.129Z,14.50
2017-08-22T18:37:34.870Z,14.50
2017-08-22T18:40:02.682Z,14.50
2017-08-22T18:42:30.429Z,14.50
2017-08-22T18:44:58.173Z,14.50
2017-08-22T18:47:25.949Z,14.50
2017-08-22T18:49:53.698Z,14.50
2017-08-22T18:52:21.502Z,14.50
2017-08-22T18:54:49.399Z,14.40
2017-08-22T18:57:17.134Z,14.30
2017-08-22T18:59:44.920Z,14.30
2017-08-22T19:02:13.494Z,14.20
2017-08-22T19:04:41.288Z,14.20
2017-08-22T19:07:09.042Z,14.10
2017-08-22T19:09:36.801Z,14.10
2017-08-22T19:12:04.634Z,14.00
2017-08-22T19:14:32.431Z,14.00
2017-08-22T19:17:00.237Z,13.90
2017-08-22T19:19:27.977Z,13.90
2017-08-22T19:21:55.741Z,13.80
2017-08-22T19:24:23.504Z,13.80
2017-08-22T19:26:51.247Z,13.70
2017-08-22T19:29:19.055Z,13.70
2017-08-22T19:31:46.792Z,13.60
2017-08-22T19:34:14.808Z,13.60
2017-08-22T19:36:43.223Z,13.50
2017-08-22T19:39:10.989Z,13.50
2017-08-22T19:41:38.838Z,13.40
2017-08-22T19:44:06.589Z,13.40
2017-08-22T19:46:34.349Z,13.40
2017-08-22T19:49:02.420Z,13.30
2017-08-22T19:51:30.216Z,13.30
2017-08-22T19:53:58.177Z,13.30
2017-08-22T19:56:26.044Z,13.30
2017-08-22T19:58:54.034Z,13.30
2017-08-22T20:01:21.894Z,13.40
2017-08-22T20:03:49.636Z,13.40
2017-08-22T20:06:17.453Z,13.50
2017-08-22T20:08:45.186Z,13.50
2017-08-22T20:11:12.921Z,13.40
2017-08-22T20:13:40.690Z,13.40
2017-08-22T20:16:08.447Z,13.40
2017-08-22T20:18:36.250Z,13.30
2017-08-22T20:21:04.231Z,13.30
2017-08-22T20:23:31.973Z,13.40
2017-08-22T20:25:59.817Z,13.50
2017-08-22T20:28:27.633Z,13.50
2017-08-22T20:30:55.437Z,13.50
2017-08-22T20:33:23.190Z,13.50
2017-08-22T20:35:51.054Z,13.50
2017-08-22T20:38:18.857Z,13.60
2017-08-22T20:40:46.613Z,13.60
2017-08-22T20:43:14.498Z,13.60
2017-08-22T20:45:42.342Z,13.70
2017-08-22T20:48:10.096Z,13.60
2017-08-22T20:50:37.873Z,13.60
2017-08-22T20:53:05.610Z,13.60
2017-08-22T20:55:33.594Z,13.70
2017-08-22T20:58:01.473Z,13.70
2017-08-22T21:00:29.214Z,13.60
2017-08-22T21:02:57.114Z,13.70
2017-08-22T21:05:24.857Z,13.70
2017-08-22T21:07:52.680Z,13.70
2017-08-22T21:10:20.557Z,13.60
2017-08-22T21:12:48.468Z,13.60
2017-08-22T21:15:16.241Z,13.70
2017-08-22T21:17:44.029Z,13.70
2017-08-22T21:20:11.851Z,13.70
2017-08-22T21:22:39.608Z,13.80
2017-08-22T21:25:07.341Z,13.70
2017-08-22T21:27:35.117Z,13.70
2017-08-22T21:30:02.855Z,13.70
2017-08-22T21:32:30.649Z,13.70
2017-08-22T21:34:58.385Z,13.60
2017-08-22T21:37:26.129Z,13.60
2017-08-22T21:39:53.917Z,13.50
2017-08-22T21:42:21.654Z,13.50
2017-08-22T21:44:49.444Z,13.50
2017-08-22T21:47:17.183Z,13.50
2017-08-22T21:49:44.936Z,13.60
2017-08-22T21:52:12.705Z,13.60
2017-08-22T21:54:40.442Z,13.50
2017-08-22T21:57:08.254Z,13.50
2017-08-22T21:59:35.988Z,13.60
2017-08-22T22:02:03.724Z,13.50
2017-08-22T22:04:31.492Z,13.50
2017-08-22T22:06:59.238Z,13.50
2017-08-22T22:09:27.024Z,13.60
2017-08-22T22:11:54.835Z,13.60
2017-08-22T22:14:22.565Z,13.60
2017-08-22T22:16:50.339Z,13.50
2017-08-22T22:19:18.088Z,13.50
2017-08-22T22:21:45.886Z,13.60
2017-08-22T22:24:13.629Z,13.60
2017-08-22T22:26:41.374Z,13.60
2017-08-22T22:29:09.147Z,13.50
2017-08-22T22:31:36.881Z,13.50
2017-08-22T22:34:04.673Z,13.60
2017-08-22T22:36:32.405Z,13.50
2017-08-22T22:39:00.140Z,13.60
2017-08-22T22:41:27.909Z,13.60
2017-08-22T22:43:55.696Z,13.60
2017-08-22T22:46:23.504Z,13.50
2017-08-22T22:48:51.248Z,13.50
2017-08-22T22:51:18.981Z,13.50
2017-08-22T22:53:46.744Z,13.40
2017-08-22T22:56:14.481Z,13.40
2017-08-22T22:58:42.277Z,13.40
2017-08-22T23:01:10.013Z,13.40
2017-08-22T23:03:37.755Z,13.40
2017-08-22T23:06:05.522Z,13.40
2017-08-22T23:08:33.261Z,13.50
2017-08-22T23:11:01.058Z,13.40
2017-08-22T23:13:28.798Z,13.50
2017-08-22T23:15:56.537Z,13.50
2017-08-22T23:18:24.317Z,13.50
2017-08-22T23:20:52.094Z,13.50
2017-08-22T23:23:19.893Z,13.50
2017-08-22T23:25:47.693Z,13.50
2017-08-22T23:28:15.480Z,13.50
2017-08-22T23:30:43.250Z,13.50
2017-08-22T23:33:10.985Z,13.50
2017-08-22T23:35:38.854Z,13.50
2017-08-22T23:38:06.584Z,13.40
2017-08-22T23:40:34.321Z,13.40
2017-08-22T23:43:02.098Z,13.40
2017-08-22T23:45:29.833Z,13.40
2017-08-22T23:47:57.626Z,13.40
2017-08-22T23:50:25.361Z,13.40
2017-08-22T23:52:53.109Z,13.50
2017-08-22T23:55:20.876Z,13.50
2017-08-22T23:57:48.621Z,13.40
